createdAt,value
2018-07-03T00:00:32.842Z,59.21
2018-07-03T00:03:00.717Z,60.04
2018-07-03T00:05:28.606Z,59.95
2018-07-03T00:07:57.479Z,61.82
2018-07-03T00:10:25.682Z,62.90
2018-07-03T00:12:53.546Z,62.95
2018-07-03T00:15:21.423Z,62.99
2018-07-03T00:17:49.307Z,62.95
2018-07-03T00:20:17.782Z,63.16
2018-07-03T00:22:45.600Z,64.31
2018-07-03T00:25:13.485Z,64.78
2018-07-03T00:27:41.376Z,63.98
2018-07-03T00:30:09.245Z,64.52
2018-07-03T00:32:37.163Z,64.21
2018-07-03T00:35:05.095Z,64.73
2018-07-03T00:37:32.938Z,64.30
2018-07-03T00:40:00.776Z,63.51
2018-07-03T00:42:28.611Z,63.87
2018-07-03T00:44:56.476Z,63.94
2018-07-03T00:47:24.350Z,63.56
2018-07-03T00:49:52.216Z,63.30
2018-07-03T00:52:20.094Z,64.25
2018-07-03T00:54:47.964Z,63.67
2018-07-03T00:57:15.831Z,63.59
2018-07-03T00:59:54.674Z,64.31
2018-07-03T01:02:22.850Z,65.65
2018-07-03T01:04:50.717Z,66.49
2018-07-03T01:07:18.587Z,66.75
2018-07-03T01:09:46.545Z,65.71
2018-07-03T01:12:14.419Z,66.59
2018-07-03T01:14:42.334Z,66.01
2018-07-03T01:17:10.235Z,65.53
2018-07-03T01:19:38.114Z,65.57
2018-07-03T01:22:06.075Z,65.77
2018-07-03T01:24:33.972Z,64.80
2018-07-03T01:27:01.889Z,64.71
2018-07-03T01:29:29.791Z,64.82
2018-07-03T01:31:57.686Z,63.96
2018-07-03T01:34:25.588Z,64.36
2018-07-03T01:36:53.455Z,67.04
2018-07-03T01:39:21.363Z,66.47
2018-07-03T01:41:49.219Z,65.86
2018-07-03T01:44:17.115Z,65.94
2018-07-03T01:46:44.999Z,65.96
2018-07-03T01:49:12.887Z,67.05
2018-07-03T01:51:40.730Z,67.99
2018-07-03T01:54:08.634Z,71.28
2018-07-03T01:56:36.503Z,72.34
2018-07-03T01:59:04.408Z,71.83
2018-07-03T02:01:32.347Z,70.38
2018-07-03T02:04:00.270Z,69.14
2018-07-03T02:06:28.140Z,67.51
2018-07-03T02:08:56.019Z,67.51
2018-07-03T02:11:23.898Z,66.17
2018-07-03T02:13:51.759Z,70.19
2018-07-03T02:16:19.691Z,77.98
2018-07-03T02:18:47.560Z,82.91
2018-07-03T02:21:15.435Z,84.81
2018-07-03T02:23:43.314Z,84.97
2018-07-03T02:26:11.334Z,84.96
2018-07-03T02:28:39.206Z,84.14
2018-07-03T02:31:07.194Z,84.23
2018-07-03T02:33:35.104Z,83.21
2018-07-03T02:36:03.071Z,82.63
2018-07-03T02:38:30.931Z,84.08
2018-07-03T02:40:59.087Z,84.65
2018-07-03T02:43:27.050Z,84.78
2018-07-03T02:45:54.954Z,84.71
2018-07-03T02:48:22.849Z,84.15
2018-07-03T02:50:50.730Z,84.33
2018-07-03T02:53:18.623Z,84.78
2018-07-03T02:55:46.534Z,85.46
2018-07-03T02:58:14.436Z,84.91
2018-07-03T03:00:42.415Z,84.74
2018-07-03T03:03:10.260Z,84.95
2018-07-03T03:05:38.156Z,85.33
2018-07-03T03:08:06.161Z,85.75
2018-07-03T03:10:34.044Z,85.94
2018-07-03T03:13:01.992Z,85.54
2018-07-03T03:15:29.866Z,86.54
2018-07-03T03:17:57.759Z,84.86
2018-07-03T03:20:25.638Z,85.72
2018-07-03T03:22:53.682Z,86.22
2018-07-03T03:25:21.621Z,87.29
2018-07-03T03:27:49.484Z,86.82
2018-07-03T03:30:17.413Z,85.98
2018-07-03T03:32:45.277Z,86.22
2018-07-03T03:35:13.143Z,85.79
2018-07-03T03:37:41.054Z,86.26
2018-07-03T03:40:08.972Z,86.32
2018-07-03T03:42:36.868Z,85.67
2018-07-03T03:45:04.795Z,85.31
2018-07-03T03:47:32.723Z,84.92
2018-07-03T03:50:00.570Z,84.05
2018-07-03T03:52:28.417Z,84.09
2018-07-03T03:54:56.266Z,82.81
2018-07-03T03:57:24.497Z,81.66
2018-07-03T03:59:52.368Z,80.07
2018-07-03T04:02:20.255Z,79.02
2018-07-03T04:04:48.151Z,74.86
2018-07-03T04:07:16.108Z,71.83
2018-07-03T04:09:44.014Z,66.98
2018-07-03T04:12:11.863Z,65.59
2018-07-03T04:14:39.730Z,62.64
2018-07-03T04:17:07.566Z,63.33
2018-07-03T04:19:35.699Z,69.33
2018-07-03T04:22:03.593Z,73.75
2018-07-03T04:24:31.481Z,74.74
2018-07-03T04:26:59.327Z,75.54
2018-07-03T04:29:27.218Z,74.75
2018-07-03T04:31:55.051Z,74.11
2018-07-03T04:34:22.894Z,76.18
2018-07-03T04:36:50.715Z,75.88
2018-07-03T04:39:18.575Z,77.33
2018-07-03T04:41:46.399Z,78.14
2018-07-03T04:44:14.222Z,77.84
2018-07-03T04:46:42.066Z,78.15
2018-07-03T04:49:09.929Z,76.42
2018-07-03T04:51:37.821Z,76.67
2018-07-03T04:54:05.691Z,76.16
2018-07-03T04:56:33.541Z,75.71
2018-07-03T04:59:01.390Z,74.50
2018-07-03T05:01:29.243Z,74.50
2018-07-03T05:03:57.108Z,70.90
2018-07-03T05:06:24.988Z,65.40
2018-07-03T05:08:52.855Z,61.77
2018-07-03T05:11:20.746Z,58.71
2018-07-03T05:13:48.595Z,55.07
2018-07-03T05:16:16.482Z,56.09
2018-07-03T05:18:44.358Z,52.44
2018-07-03T05:21:12.559Z,44.72
2018-07-03T05:23:40.414Z,38.82
2018-07-03T05:26:08.294Z,43.74
2018-07-03T05:28:36.181Z,41.02
2018-07-03T05:31:04.105Z,43.98
2018-07-03T05:33:31.967Z,44.49
2018-07-03T05:35:59.818Z,46.68
2018-07-03T05:38:28.018Z,50.21
2018-07-03T05:40:55.954Z,48.90
2018-07-03T05:43:23.800Z,44.94
2018-07-03T05:45:51.699Z,44.15
2018-07-03T05:48:19.861Z,43.18
2018-07-03T05:50:47.786Z,42.19
2018-07-03T05:53:15.694Z,38.20
2018-07-03T05:55:43.550Z,36.58
2018-07-03T05:58:11.422Z,34.97
2018-07-03T06:00:39.309Z,41.09
2018-07-03T06:03:07.207Z,41.07
2018-07-03T06:05:35.123Z,34.78
2018-07-03T06:08:03.036Z,31.41
2018-07-03T06:10:30.947Z,30.40
2018-07-03T06:12:58.867Z,28.86
2018-07-03T06:15:26.702Z,28.95
2018-07-03T06:17:54.875Z,29.70
2018-07-03T06:20:22.772Z,28.95
2018-07-03T06:22:50.665Z,28.96
2018-07-03T06:25:18.580Z,29.47
2018-07-03T06:27:46.427Z,32.57
2018-07-03T06:30:14.305Z,35.66
2018-07-03T06:32:42.162Z,36.36
2018-07-03T06:35:10.051Z,36.28
2018-07-03T06:37:37.977Z,35.56
2018-07-03T06:40:05.911Z,37.25
2018-07-03T06:42:33.785Z,38.95
2018-07-03T06:45:01.750Z,34.82
2018-07-03T06:47:29.563Z,35.20
2018-07-03T06:49:57.503Z,35.74
2018-07-03T06:52:25.413Z,33.03
2018-07-03T07:00:01.325Z,37.99
2018-07-03T07:02:29.256Z,35.65
2018-07-03T07:04:57.132Z,34.46
2018-07-03T07:07:30.954Z,33.17
2018-07-03T07:09:58.767Z,32.75
2018-07-03T07:12:26.629Z,32.47
2018-07-03T07:14:54.519Z,36.81
2018-07-03T07:17:22.369Z,34.16
2018-07-03T07:19:50.258Z,35.72
2018-07-03T07:22:18.096Z,37.55
2018-07-03T07:24:45.877Z,36.04
2018-07-03T07:27:13.719Z,36.77
2018-07-03T07:29:41.574Z,35.41
2018-07-03T07:32:09.410Z,34.98
2018-07-03T07:34:37.265Z,33.30
2018-07-03T07:37:05.146Z,33.54
2018-07-03T07:39:33.283Z,34.42
2018-07-03T07:42:01.136Z,35.59
2018-07-03T07:44:29.005Z,35.50
2018-07-03T07:46:56.883Z,38.26
2018-07-03T07:49:24.740Z,39.62
2018-07-03T07:51:52.634Z,38.50
2018-07-03T07:54:20.504Z,37.98
2018-07-03T07:56:48.386Z,36.67
2018-07-03T07:59:16.242Z,36.31
2018-07-03T08:01:44.105Z,35.84
2018-07-03T08:04:11.978Z,35.11
2018-07-03T08:06:39.877Z,34.36
2018-07-03T08:09:08.978Z,35.99
2018-07-03T08:11:36.888Z,34.17
2018-07-03T08:14:04.953Z,33.85
2018-07-03T08:16:32.808Z,37.95
2018-07-03T08:19:00.647Z,38.62
2018-07-03T08:21:28.486Z,38.29
2018-07-03T08:23:56.335Z,38.40
2018-07-03T08:26:24.196Z,36.51
2018-07-03T08:28:52.723Z,36.33
2018-07-03T08:31:20.545Z,35.08
2018-07-03T08:33:48.391Z,39.47
2018-07-03T08:36:16.244Z,41.47
2018-07-03T08:38:44.079Z,39.59
2018-07-03T08:41:11.909Z,39.63
2018-07-03T08:43:39.782Z,41.09
2018-07-03T08:46:07.765Z,40.22
2018-07-03T08:48:35.635Z,40.70
2018-07-03T08:51:03.513Z,38.95
2018-07-03T08:53:31.382Z,39.61
2018-07-03T08:55:59.264Z,40.39
2018-07-03T08:58:27.627Z,41.73
2018-07-03T09:00:55.875Z,41.71
2018-07-03T09:03:23.750Z,42.08
2018-07-03T09:05:51.650Z,42.62
2018-07-03T09:08:19.625Z,41.06
2018-07-03T09:10:47.779Z,42.07
2018-07-03T09:13:15.612Z,39.72
2018-07-03T09:15:43.450Z,37.69
2018-07-03T09:18:11.422Z,36.71
2018-07-03T09:20:39.485Z,38.05
2018-07-03T09:23:07.345Z,39.18
2018-07-03T09:25:35.340Z,39.80
2018-07-03T09:28:03.238Z,42.86
2018-07-03T09:30:31.134Z,44.09
2018-07-03T09:32:58.992Z,43.98
2018-07-03T09:35:26.858Z,46.63
2018-07-03T09:37:54.963Z,42.34
2018-07-03T09:40:22.850Z,43.56
2018-07-03T09:42:50.795Z,42.72
2018-07-03T09:45:18.667Z,41.65
2018-07-03T09:47:46.523Z,42.60
2018-07-03T09:50:14.394Z,42.50
2018-07-03T09:52:42.268Z,42.19
2018-07-03T09:55:10.120Z,40.56
2018-07-03T09:57:38.046Z,40.16
2018-07-03T10:00:06.752Z,39.25
2018-07-03T10:02:34.685Z,38.66
2018-07-03T10:05:02.554Z,36.88
2018-07-03T10:07:30.451Z,37.15
2018-07-03T10:09:58.341Z,38.24
2018-07-03T10:12:26.221Z,42.06
2018-07-03T10:14:54.111Z,41.94
2018-07-03T10:17:22.326Z,38.32
2018-07-03T10:19:50.279Z,38.11
2018-07-03T10:22:18.185Z,39.25
2018-07-03T10:24:46.075Z,40.43
2018-07-03T10:27:13.904Z,40.38
2018-07-03T10:29:41.754Z,38.98
2018-07-03T10:32:09.681Z,38.15
2018-07-03T10:34:37.568Z,38.31
2018-07-03T10:37:05.462Z,37.49
2018-07-03T10:39:33.339Z,36.76
2018-07-03T10:42:01.500Z,38.71
2018-07-03T10:44:29.423Z,39.63
2018-07-03T10:46:57.320Z,41.17
2018-07-03T10:49:25.302Z,36.77
2018-07-03T10:51:53.175Z,35.45
2018-07-03T10:54:21.299Z,38.81
2018-07-03T10:56:49.162Z,38.27
2018-07-03T10:59:17.043Z,37.33
2018-07-03T11:01:44.943Z,35.97
2018-07-03T11:04:12.804Z,35.44
2018-07-03T11:06:40.702Z,33.80
2018-07-03T11:09:10.298Z,35.19
2018-07-03T11:11:38.236Z,36.46
2018-07-03T11:14:06.208Z,34.66
2018-07-03T11:16:34.055Z,36.84
2018-07-03T11:19:01.965Z,36.01
2018-07-03T11:21:29.875Z,34.96
2018-07-03T11:23:57.872Z,37.47
2018-07-03T11:26:25.762Z,36.77
2018-07-03T11:28:53.994Z,37.57
2018-07-03T11:31:21.866Z,35.85
2018-07-03T11:33:49.774Z,36.04
2018-07-03T11:36:17.658Z,37.62
2018-07-03T11:38:45.530Z,36.90
2018-07-03T11:41:13.388Z,37.31
2018-07-03T11:43:41.221Z,37.59
2018-07-03T11:46:09.412Z,38.42
2018-07-03T11:48:37.274Z,39.43
2018-07-03T11:51:05.216Z,40.12
2018-07-03T11:53:33.121Z,38.43
2018-07-03T11:56:00.975Z,36.44
2018-07-03T11:58:28.840Z,35.18
2018-07-03T12:00:56.836Z,38.05
2018-07-03T12:03:24.727Z,36.50
2018-07-03T12:05:52.688Z,37.59
2018-07-03T12:08:20.561Z,38.97
2018-07-03T12:10:48.439Z,38.99
2018-07-03T12:13:16.339Z,40.10
2018-07-03T12:15:44.250Z,39.41
2018-07-03T12:18:16.663Z,39.52
2018-07-03T12:20:44.558Z,39.87
2018-07-03T12:23:12.435Z,41.51
2018-07-03T12:25:40.369Z,41.35
2018-07-03T12:28:08.301Z,40.11
2018-07-03T12:30:36.224Z,40.03
2018-07-03T12:33:04.111Z,40.02
2018-07-03T12:35:32.254Z,38.32
2018-07-03T12:38:00.111Z,37.70
2018-07-03T12:40:27.950Z,35.34
2018-07-03T12:42:55.831Z,37.57
2018-07-03T12:45:23.836Z,37.79
2018-07-03T12:47:51.702Z,40.17
2018-07-03T12:50:19.622Z,39.63
2018-07-03T12:52:47.539Z,41.22
2018-07-03T12:55:15.429Z,42.60
2018-07-03T12:57:43.297Z,41.57
2018-07-03T13:00:11.216Z,38.40
2018-07-03T13:02:39.119Z,36.64
2018-07-03T13:05:07.078Z,36.78
2018-07-03T13:07:35.004Z,35.27
2018-07-03T13:10:03.147Z,34.57
2018-07-03T13:12:31.032Z,35.21
2018-07-03T13:14:58.892Z,36.32
2018-07-03T13:17:26.783Z,37.42
2018-07-03T13:19:54.878Z,37.33
2018-07-03T13:22:22.798Z,37.28
2018-07-03T13:24:50.923Z,37.67
2018-07-03T13:27:19.764Z,35.65
2018-07-03T13:29:47.662Z,37.21
2018-07-03T13:32:15.536Z,37.78
2018-07-03T13:34:43.418Z,38.91
2018-07-03T13:37:11.343Z,38.95
2018-07-03T13:39:39.196Z,37.48
2018-07-03T13:42:07.132Z,36.50
2018-07-03T13:44:34.995Z,34.57
2018-07-03T13:47:02.885Z,34.68
2018-07-03T13:49:30.746Z,34.73
2018-07-03T13:51:58.638Z,35.43
2018-07-03T13:54:26.495Z,36.66
2018-07-03T13:56:54.351Z,36.47
2018-07-03T13:59:22.205Z,37.64
2018-07-03T14:01:50.082Z,36.53
2018-07-03T14:04:17.962Z,35.40
2018-07-03T14:06:45.871Z,34.29
2018-07-03T14:09:13.740Z,33.26
2018-07-03T14:11:41.609Z,32.09
2018-07-03T14:14:09.476Z,34.07
2018-07-03T14:16:37.341Z,35.36
2018-07-03T14:19:05.291Z,35.84
2018-07-03T14:21:33.208Z,36.10
2018-07-03T14:24:01.075Z,36.32
2018-07-03T14:26:28.924Z,38.20
2018-07-03T14:28:56.769Z,39.00
2018-07-03T14:31:24.619Z,40.85
2018-07-03T14:33:53.063Z,40.70
2018-07-03T14:36:21.053Z,39.27
2018-07-03T14:38:48.892Z,36.87
2018-07-03T14:41:16.761Z,35.62
2018-07-03T14:43:44.625Z,33.86
2018-07-03T14:46:12.463Z,33.26
2018-07-03T14:48:40.334Z,33.18
2018-07-03T14:51:08.255Z,33.12
2018-07-03T14:53:36.202Z,33.78
2018-07-03T14:56:04.163Z,34.97
2018-07-03T14:58:32.055Z,35.96
2018-07-03T15:01:00.012Z,35.82
2018-07-03T15:03:27.950Z,35.42
2018-07-03T15:05:55.842Z,35.23
2018-07-03T15:08:23.774Z,35.72
2018-07-03T15:10:51.627Z,35.05
2018-07-03T15:13:19.571Z,34.53
2018-07-03T15:15:47.513Z,32.92
2018-07-03T15:18:15.440Z,33.90
2018-07-03T15:20:43.323Z,34.90
2018-07-03T15:23:11.207Z,35.26
2018-07-03T15:25:39.052Z,34.74
2018-07-03T15:28:06.958Z,35.87
2018-07-03T15:30:34.851Z,35.20
2018-07-03T15:33:03.746Z,34.84
2018-07-03T15:35:31.624Z,34.70
2018-07-03T15:37:59.485Z,35.48
2018-07-03T15:40:27.405Z,35.51
2018-07-03T15:42:55.680Z,36.36
2018-07-03T15:45:23.571Z,34.86
2018-07-03T15:47:51.437Z,35.14
2018-07-03T15:50:19.335Z,35.31
2018-07-03T15:52:47.177Z,35.97
2018-07-03T15:55:15.163Z,35.41
2018-07-03T15:57:43.031Z,35.15
2018-07-03T16:00:14.081Z,35.30
2018-07-03T16:02:52.733Z,36.46
2018-07-03T16:05:31.915Z,37.05
2018-07-03T16:09:08.322Z,36.40
2018-07-03T16:11:36.332Z,36.08
2018-07-03T16:14:04.292Z,36.54
2018-07-03T16:16:32.425Z,35.84
2018-07-03T16:19:05.758Z,37.23
2018-07-03T16:21:33.665Z,37.77
2018-07-03T16:24:01.538Z,37.72
2018-07-03T16:26:29.450Z,38.18
2018-07-03T16:28:57.326Z,37.40
2018-07-03T16:31:25.369Z,37.68
2018-07-03T16:33:53.735Z,37.81
2018-07-03T16:36:21.657Z,37.75
2018-07-03T16:38:49.596Z,38.85
2018-07-03T16:41:17.472Z,39.11
2018-07-03T16:43:45.383Z,38.43
2018-07-03T16:46:13.279Z,39.67
2018-07-03T16:48:41.138Z,39.42
2018-07-03T16:51:10.024Z,39.69
2018-07-03T16:53:38.193Z,39.21
2018-07-03T16:56:06.116Z,40.12
2018-07-03T16:58:34.024Z,40.11
2018-07-03T17:01:01.889Z,41.88
2018-07-03T17:03:29.819Z,42.84
2018-07-03T17:05:57.683Z,43.44
2018-07-03T17:08:25.594Z,43.00
2018-07-03T17:10:53.499Z,42.96
2018-07-03T17:13:21.524Z,43.93
2018-07-03T17:15:49.412Z,43.76
2018-07-03T17:18:17.335Z,43.62
2018-07-03T17:20:45.248Z,45.43
2018-07-03T17:23:13.097Z,46.59
2018-07-03T17:25:41.157Z,47.39
2018-07-03T17:28:09.487Z,48.84
2018-07-03T17:30:37.350Z,49.81
2018-07-03T17:33:05.788Z,50.90
2018-07-03T17:35:34.074Z,52.12
2018-07-03T17:38:02.072Z,52.19
2018-07-03T17:40:41.099Z,52.67
2018-07-03T17:44:21.329Z,52.45
2018-07-03T17:46:49.440Z,53.40
2018-07-03T17:49:18.190Z,54.36
2018-07-03T17:51:46.126Z,54.38
2018-07-03T17:54:14.190Z,54.44
2018-07-03T17:56:42.093Z,54.93
2018-07-03T17:59:09.931Z,54.81
2018-07-03T18:01:37.921Z,55.58
2018-07-03T18:04:05.872Z,55.38
2018-07-03T18:06:33.718Z,55.83
2018-07-03T18:09:01.656Z,57.47
2018-07-03T18:11:29.612Z,57.93
2018-07-03T18:13:57.536Z,57.95
2018-07-03T18:16:25.414Z,58.72
2018-07-03T18:18:58.872Z,59.05
2018-07-03T18:21:26.791Z,58.89
2018-07-03T18:23:55.066Z,59.41
2018-07-03T18:26:22.934Z,60.67
2018-07-03T18:28:51.046Z,62.15
2018-07-03T18:31:18.931Z,64.05
2018-07-03T18:33:46.991Z,63.60
2018-07-03T18:36:14.691Z,62.05
2018-07-03T18:38:42.554Z,61.28
2018-07-03T18:41:10.428Z,61.46
2018-07-03T18:43:38.315Z,60.54
2018-07-03T18:46:06.185Z,59.75
2018-07-03T18:48:34.096Z,59.59
2018-07-03T18:51:01.973Z,60.81
2018-07-03T18:53:29.846Z,60.92
2018-07-03T18:55:58.048Z,60.63
2018-07-03T18:58:25.958Z,60.89
2018-07-03T19:00:53.842Z,61.15
2018-07-03T19:03:21.776Z,61.08
2018-07-03T19:05:49.588Z,61.62
2018-07-03T19:08:17.494Z,61.08
2018-07-03T19:10:45.439Z,61.39
2018-07-03T19:13:13.293Z,61.26
2018-07-03T19:15:41.157Z,61.09
2018-07-03T19:18:09.072Z,61.31
2018-07-03T19:20:36.998Z,61.86
2018-07-03T19:23:05.259Z,61.31
2018-07-03T19:25:33.230Z,62.04
2018-07-03T19:28:01.250Z,62.43
2018-07-03T19:30:29.209Z,63.07
2018-07-03T19:32:57.061Z,62.25
2018-07-03T19:35:25.054Z,62.37
2018-07-03T19:37:53.325Z,62.85
2018-07-03T19:40:21.344Z,62.47
2018-07-03T19:43:29.376Z,63.28
2018-07-03T19:45:58.089Z,64.26
2018-07-03T19:48:26.001Z,64.01
2018-07-03T19:50:54.080Z,64.35
2018-07-03T19:53:22.292Z,64.21
2018-07-03T19:55:51.363Z,64.09
2018-07-03T19:58:20.189Z,63.54
2018-07-03T20:00:49.177Z,64.52
2018-07-03T20:03:17.133Z,63.80
2018-07-03T20:05:45.034Z,64.33
2018-07-03T20:08:12.956Z,65.06
2018-07-03T20:10:40.901Z,65.01
2018-07-03T20:13:10.745Z,64.81
2018-07-03T20:15:38.842Z,65.24
2018-07-03T20:18:07.466Z,65.29
2018-07-03T20:20:35.371Z,65.18
2018-07-03T20:23:03.405Z,64.78
2018-07-03T20:25:31.326Z,65.48
2018-07-03T20:27:59.801Z,66.34
2018-07-03T20:30:27.751Z,65.86
2018-07-03T20:32:55.606Z,66.67
2018-07-03T20:35:23.558Z,66.33
2018-07-03T20:37:54.226Z,66.80
2018-07-03T20:40:22.853Z,66.75
2018-07-03T20:42:51.838Z,65.71
2018-07-03T20:45:20.207Z,66.12
2018-07-03T20:47:48.357Z,65.54
2018-07-03T20:50:16.861Z,65.44
2018-07-03T20:52:44.943Z,66.34
2018-07-03T20:55:13.382Z,66.51
2018-07-03T20:57:41.206Z,66.60
2018-07-03T21:00:09.062Z,66.40
2018-07-03T21:02:36.936Z,66.44
2018-07-03T21:05:04.824Z,66.37
2018-07-03T21:07:32.689Z,66.67
2018-07-03T21:10:00.557Z,66.45
2018-07-03T21:12:28.385Z,66.41
2018-07-03T21:14:56.215Z,65.70
2018-07-03T21:17:24.049Z,66.17
2018-07-03T21:19:51.896Z,66.00
2018-07-03T21:22:19.746Z,66.23
2018-07-03T21:24:47.622Z,66.32
2018-07-03T21:27:15.462Z,66.19
2018-07-03T21:29:43.287Z,66.16
2018-07-03T21:32:11.191Z,66.09
2018-07-03T21:34:38.983Z,65.88
2018-07-03T21:37:06.826Z,67.95
2018-07-03T21:39:34.635Z,67.76
2018-07-03T21:42:02.456Z,67.71
2018-07-03T21:44:30.256Z,67.31
2018-07-03T21:46:58.112Z,67.35
2018-07-03T21:49:25.940Z,67.12
2018-07-03T21:51:53.798Z,66.01
2018-07-03T21:54:21.622Z,66.08
2018-07-03T21:56:49.440Z,65.95
2018-07-03T21:59:17.283Z,65.83
2018-07-03T22:01:45.138Z,65.18
2018-07-03T22:04:13.007Z,65.34
2018-07-03T22:06:40.850Z,65.99
2018-07-03T22:09:11.013Z,65.66
2018-07-03T22:11:38.873Z,65.50
2018-07-03T22:14:06.687Z,64.83
2018-07-03T22:16:34.521Z,63.75
2018-07-03T22:19:02.375Z,64.22
2018-07-03T22:21:30.239Z,64.09
2018-07-03T22:23:58.214Z,64.00
2018-07-03T22:26:26.080Z,64.49
2018-07-03T22:28:54.036Z,65.21
2018-07-03T22:31:21.878Z,65.44
2018-07-03T22:33:49.703Z,65.92
2018-07-03T22:36:17.516Z,65.43
2018-07-03T22:38:45.418Z,65.11
2018-07-03T22:41:13.211Z,64.21
2018-07-03T22:43:41.039Z,64.74
2018-07-03T22:46:08.851Z,63.68
2018-07-03T22:48:36.755Z,65.39
2018-07-03T22:51:04.619Z,66.83
2018-07-03T22:53:32.667Z,66.26
2018-07-03T22:56:00.497Z,66.42
2018-07-03T22:58:28.399Z,66.65
2018-07-03T23:00:56.283Z,66.70
2018-07-03T23:03:24.119Z,67.07
2018-07-03T23:05:51.962Z,67.38
2018-07-03T23:08:19.927Z,67.45
2018-07-03T23:10:47.756Z,68.04
2018-07-03T23:13:15.597Z,68.59
2018-07-03T23:15:43.520Z,68.17
2018-07-03T23:18:11.617Z,69.15
2018-07-03T23:20:39.437Z,68.07
2018-07-03T23:23:07.254Z,68.66
2018-07-03T23:25:35.095Z,69.05
2018-07-03T23:28:02.942Z,68.94
2018-07-03T23:30:30.800Z,69.38
2018-07-03T23:32:58.614Z,71.66
2018-07-03T23:35:26.477Z,71.60
2018-07-03T23:37:54.288Z,71.88
2018-07-03T23:40:22.122Z,72.54
2018-07-03T23:42:49.950Z,73.36
2018-07-03T23:45:17.764Z,73.62
2018-07-03T23:47:56.701Z,73.71
2018-07-03T23:50:41.951Z,73.37
2018-07-03T23:53:26.879Z,73.75
2018-07-03T23:56:11.795Z,73.42
2018-07-03T23:58:56.774Z,73.33
